createdAt,value
2024-03-01T00:01:13.059Z,58.29
2024-03-01T00:03:40.373Z,58.30
2024-03-01T00:06:07.589Z,58.16
2024-03-01T00:08:34.876Z,58.17
2024-03-01T00:11:06.946Z,58.40
2024-03-01T00:13:36.731Z,58.31
2024-03-01T00:16:04.169Z,58.08
2024-03-01T00:18:31.629Z,58.23
2024-03-01T00:20:59.344Z,58.20
2024-03-01T00:23:28.579Z,58.29
2024-03-01T00:25:57.780Z,58.28
2024-03-01T00:28:25.170Z,58.22
2024-03-01T00:30:54.307Z,58.28
2024-03-01T00:33:21.868Z,58.31
2024-03-01T00:35:49.252Z,58.34
2024-03-01T00:38:16.831Z,58.21
2024-03-01T00:40:44.306Z,58.36
2024-03-01T00:43:14.667Z,58.38
2024-03-01T00:45:42.103Z,58.26
2024-03-01T00:48:14.937Z,58.32
2024-03-01T00:50:45.114Z,58.31
2024-03-01T00:53:12.768Z,58.41
2024-03-01T00:55:40.602Z,58.29
2024-03-01T00:58:07.728Z,58.23
2024-03-01T01:00:35.448Z,58.22
2024-03-01T01:03:02.704Z,58.34
2024-03-01T01:05:29.737Z,58.35
2024-03-01T01:07:57.139Z,58.28
2024-03-01T01:10:24.165Z,58.38
2024-03-01T01:12:51.298Z,58.32
2024-03-01T01:15:18.755Z,58.36
2024-03-01T01:17:46.053Z,58.34
2024-03-01T01:20:13.485Z,58.45
2024-03-01T01:22:41.057Z,58.43
2024-03-01T01:25:08.534Z,58.58
2024-03-01T01:27:35.580Z,58.42
2024-03-01T01:30:02.909Z,58.52
2024-03-01T01:32:30.031Z,58.57
2024-03-01T01:34:57.124Z,58.49
2024-03-01T01:37:24.263Z,58.45
2024-03-01T01:39:51.639Z,58.55
2024-03-01T01:42:18.619Z,58.53
2024-03-01T01:44:47.222Z,58.56
2024-03-01T01:47:15.798Z,58.58
2024-03-01T01:49:43.042Z,58.73
2024-03-01T01:52:11.260Z,58.68
2024-03-01T01:54:38.783Z,58.51
2024-03-01T01:57:06.307Z,58.62
2024-03-01T01:59:33.566Z,58.55
2024-03-01T02:02:00.939Z,58.50
2024-03-01T02:04:30.109Z,58.59
2024-03-01T02:06:57.542Z,58.56
2024-03-01T02:09:24.751Z,58.62
2024-03-01T02:11:52.963Z,58.46
2024-03-01T02:14:20.202Z,58.47
2024-03-01T02:16:47.912Z,58.42
2024-03-01T02:19:19.241Z,58.44
2024-03-01T02:21:58.940Z,58.51
2024-03-01T02:24:26.087Z,58.59
2024-03-01T02:26:58.267Z,58.35
2024-03-01T02:29:27.750Z,58.40
2024-03-01T02:31:56.432Z,58.35
2024-03-01T02:34:23.468Z,58.40
2024-03-01T02:36:50.732Z,58.29
2024-03-01T02:39:20.383Z,58.40
2024-03-01T02:41:51.304Z,58.46
2024-03-01T02:44:22.747Z,58.40
2024-03-01T02:46:50.099Z,58.40
2024-03-01T02:49:17.309Z,58.33
2024-03-01T02:51:44.473Z,58.25
2024-03-01T02:54:11.783Z,58.32
2024-03-01T02:56:39.001Z,58.46
2024-03-01T02:59:06.037Z,58.44
2024-03-01T03:01:33.723Z,58.59
2024-03-01T03:04:01.004Z,58.43
2024-03-01T03:06:28.339Z,58.56
2024-03-01T03:08:56.096Z,58.55
2024-03-01T03:11:23.230Z,58.50
2024-03-01T03:13:50.284Z,58.60
2024-03-01T03:16:17.619Z,58.62
2024-03-01T03:18:44.682Z,58.65
2024-03-01T03:21:12.002Z,58.63
2024-03-01T03:23:39.452Z,58.66
2024-03-01T03:26:06.509Z,58.40
2024-03-01T03:28:33.751Z,58.68
2024-03-01T03:31:00.910Z,58.60
2024-03-01T03:33:28.562Z,58.62
2024-03-01T03:35:55.722Z,58.57
2024-03-01T03:38:22.717Z,58.69
2024-03-01T03:40:49.723Z,58.74
2024-03-01T03:43:16.849Z,58.83
2024-03-01T03:45:44.004Z,58.88
2024-03-01T03:48:11.235Z,58.84
2024-03-01T03:50:38.423Z,58.78
2024-03-01T03:53:05.725Z,58.86
2024-03-01T03:55:32.879Z,58.72
2024-03-01T03:58:00.091Z,58.62
2024-03-01T04:00:27.135Z,58.65
2024-03-01T04:02:54.308Z,58.57
2024-03-01T04:05:21.474Z,58.58
2024-03-01T04:07:49.056Z,58.51
2024-03-01T04:10:16.198Z,58.70
2024-03-01T04:12:43.739Z,58.60
2024-03-01T04:15:11.006Z,58.39
2024-03-01T04:17:38.033Z,58.47
2024-03-01T04:20:07.244Z,58.41
2024-03-01T04:22:34.454Z,58.44
2024-03-01T04:25:01.748Z,58.45
2024-03-01T04:27:28.778Z,58.46
2024-03-01T04:29:56.349Z,58.54
2024-03-01T04:32:23.349Z,58.35
2024-03-01T04:34:50.515Z,58.53
2024-03-01T04:37:17.930Z,58.39
2024-03-01T04:39:45.046Z,58.39
2024-03-01T04:42:12.593Z,58.53
2024-03-01T04:44:42.770Z,58.52
2024-03-01T04:47:09.895Z,58.52
2024-03-01T04:49:37.108Z,58.57
2024-03-01T04:52:04.971Z,58.60
2024-03-01T04:54:32.248Z,58.55
2024-03-01T04:56:59.241Z,58.68
2024-03-01T04:59:26.242Z,58.71
2024-03-01T05:01:53.347Z,58.86
2024-03-01T05:04:20.314Z,58.76
2024-03-01T05:06:47.244Z,58.98
2024-03-01T05:09:16.993Z,58.96
2024-03-01T05:11:45.847Z,59.02
2024-03-01T05:14:15.310Z,58.90
2024-03-01T05:16:42.264Z,58.84
2024-03-01T05:19:09.317Z,58.97
2024-03-01T05:21:37.427Z,58.83
2024-03-01T05:24:05.696Z,59.00
2024-03-01T05:26:33.855Z,58.90
2024-03-01T05:29:01.110Z,58.74
2024-03-01T05:31:44.505Z,58.98
2024-03-01T05:34:12.056Z,58.74
2024-03-01T05:36:38.986Z,58.59
2024-03-01T05:39:18.457Z,58.65
2024-03-01T05:41:46.868Z,58.59
2024-03-01T05:44:17.274Z,58.60
2024-03-01T05:46:44.986Z,58.50
2024-03-01T05:49:12.808Z,58.62
2024-03-01T05:51:40.721Z,58.39
2024-03-01T05:54:08.028Z,58.50
2024-03-01T05:56:35.233Z,58.50
2024-03-01T05:59:02.300Z,58.56
2024-03-01T06:01:29.608Z,58.52
2024-03-01T06:03:56.913Z,58.65
2024-03-01T06:06:24.239Z,58.60
2024-03-01T06:08:57.026Z,58.67
2024-03-01T06:11:25.178Z,58.80
2024-03-01T06:13:52.459Z,58.73
2024-03-01T06:16:19.960Z,58.69
2024-03-01T06:18:47.367Z,58.72
2024-03-01T06:21:22.251Z,58.71
2024-03-01T06:23:50.384Z,58.84
2024-03-01T06:26:17.640Z,58.79
2024-03-01T06:28:44.618Z,58.82
2024-03-01T06:31:12.011Z,58.87
2024-03-01T06:33:42.247Z,58.77
2024-03-01T06:36:09.693Z,58.78
2024-03-01T06:38:37.893Z,58.83
2024-03-01T06:41:06.563Z,58.89
2024-03-01T06:43:34.193Z,58.89
2024-03-01T06:46:05.002Z,58.89
2024-03-01T06:48:32.149Z,58.89
2024-03-01T06:51:00.699Z,58.85
2024-03-01T06:53:31.030Z,58.83
2024-03-01T06:55:58.715Z,59.15
2024-03-01T06:58:25.977Z,59.04
2024-03-01T07:00:53.316Z,59.11
2024-03-01T07:03:20.725Z,59.01
2024-03-01T07:05:48.265Z,59.01
2024-03-01T07:08:15.414Z,59.18
2024-03-01T07:10:44.182Z,59.15
2024-03-01T07:13:12.171Z,59.39
2024-03-01T07:15:39.264Z,59.31
2024-03-01T07:18:06.556Z,59.53
2024-03-01T07:20:33.757Z,59.57
2024-03-01T07:23:01.292Z,59.57
2024-03-01T07:25:28.341Z,59.57
2024-03-01T07:27:55.566Z,59.72
2024-03-01T07:30:23.362Z,59.58
2024-03-01T07:32:50.574Z,59.43
2024-03-01T07:35:20.563Z,59.44
2024-03-01T07:37:48.229Z,59.32
2024-03-01T07:40:16.034Z,59.46
2024-03-01T07:42:43.253Z,59.49
2024-03-01T07:45:12.046Z,59.44
2024-03-01T07:47:43.625Z,59.37
2024-03-01T07:50:16.688Z,59.43
2024-03-01T07:52:43.987Z,59.40
2024-03-01T07:55:13.172Z,59.31
2024-03-01T07:57:40.479Z,59.32
2024-03-01T08:00:08.198Z,59.32
2024-03-01T08:02:35.701Z,59.41
2024-03-01T08:05:03.306Z,59.31
2024-03-01T08:07:30.325Z,59.35
2024-03-01T08:09:57.425Z,59.31
2024-03-01T08:12:25.040Z,59.48
2024-03-01T08:14:53.493Z,59.38
2024-03-01T08:17:20.543Z,59.31
2024-03-01T08:19:49.496Z,59.40
2024-03-01T08:22:18.647Z,59.43
2024-03-01T08:24:50.386Z,59.40
2024-03-01T08:27:29.385Z,59.46
2024-03-01T08:29:58.333Z,59.55
2024-03-01T08:32:46.746Z,59.29
2024-03-01T08:35:17.491Z,59.49
2024-03-01T08:37:44.696Z,59.58
2024-03-01T08:40:33.867Z,59.67
2024-03-01T08:43:00.997Z,59.71
2024-03-01T08:45:46.760Z,59.59
2024-03-01T08:48:26.710Z,59.55
2024-03-01T08:50:54.059Z,59.53
2024-03-01T08:53:49.052Z,59.44
2024-03-01T08:56:22.055Z,59.49
2024-03-01T08:58:50.261Z,59.52
2024-03-01T09:01:45.758Z,59.28
2024-03-01T09:04:39.721Z,59.33
2024-03-01T09:07:12.987Z,59.39
2024-03-01T09:09:41.163Z,59.33
2024-03-01T09:12:19.041Z,59.23
2024-03-01T09:14:46.191Z,59.20
2024-03-01T09:17:15.147Z,59.30
2024-03-01T09:19:48.873Z,59.30
2024-03-01T09:22:17.776Z,59.28
2024-03-01T09:24:46.516Z,59.30
2024-03-01T09:27:33.385Z,59.28
2024-03-01T09:30:12.958Z,59.32
2024-03-01T09:32:40.201Z,59.14
2024-03-01T09:35:07.938Z,59.38
2024-03-01T09:37:36.145Z,59.37
2024-03-01T09:40:46.931Z,59.35
2024-03-01T09:43:51.151Z,59.29
2024-03-01T09:46:28.908Z,59.71
2024-03-01T09:49:25.879Z,59.85
2024-03-01T09:52:31.930Z,60.45
2024-03-01T09:55:41.030Z,60.73
2024-03-01T09:58:13.785Z,60.67
2024-03-01T10:00:51.808Z,60.74
2024-03-01T10:03:18.833Z,60.51
2024-03-01T10:06:09.537Z,60.33
2024-03-01T10:09:02.265Z,60.20
2024-03-01T10:12:17.044Z,60.18
2024-03-01T10:14:57.705Z,59.76
2024-03-01T10:18:04.028Z,59.92
2024-03-01T10:21:11.679Z,59.80
2024-03-01T10:23:48.118Z,59.73
2024-03-01T10:26:29.364Z,59.58
2024-03-01T10:29:23.933Z,59.59
2024-03-01T10:32:09.675Z,59.68
2024-03-01T10:35:05.259Z,59.66
2024-03-01T10:37:50.984Z,59.61
2024-03-01T10:40:20.685Z,59.76
2024-03-01T10:43:04.784Z,59.45
2024-03-01T10:45:44.625Z,59.18
2024-03-01T10:48:12.115Z,59.15
2024-03-01T10:50:48.020Z,58.84
2024-03-01T10:53:22.438Z,58.75
2024-03-01T10:56:04.580Z,58.66
2024-03-01T10:58:56.196Z,58.46
2024-03-01T11:01:42.178Z,58.25
2024-03-01T11:04:16.588Z,58.40
2024-03-01T11:07:06.652Z,58.35
2024-03-01T11:10:00.141Z,58.17
2024-03-01T11:12:46.906Z,58.22
2024-03-01T11:15:16.937Z,58.18
2024-03-01T11:17:50.333Z,58.14
2024-03-01T11:20:29.923Z,58.11
2024-03-01T11:23:40.280Z,58.07
2024-03-01T11:26:23.642Z,57.96
2024-03-01T11:28:59.210Z,58.00
2024-03-01T11:31:39.948Z,57.91
2024-03-01T11:34:18.210Z,58.02
2024-03-01T11:37:02.868Z,57.95
2024-03-01T11:39:39.102Z,58.02
2024-03-01T11:42:23.516Z,57.93
2024-03-01T11:45:12.770Z,57.77
2024-03-01T11:48:11.070Z,57.90
2024-03-01T11:51:06.540Z,57.75
2024-03-01T11:53:51.680Z,57.76
2024-03-01T11:56:39.950Z,57.74
2024-03-01T11:59:29.872Z,57.66
2024-03-01T12:02:22.809Z,57.63
2024-03-01T12:05:06.788Z,57.53
2024-03-01T12:07:59.536Z,57.55
2024-03-01T12:10:42.494Z,57.43
2024-03-01T12:13:18.218Z,57.49
2024-03-01T12:16:05.166Z,57.54
2024-03-01T12:18:41.735Z,57.57
2024-03-01T12:21:36.445Z,57.51
2024-03-01T12:24:20.274Z,57.35
2024-03-01T12:26:54.831Z,57.36
2024-03-01T12:29:50.243Z,57.29
2024-03-01T12:32:27.915Z,57.40
2024-03-01T12:35:16.465Z,57.42
2024-03-01T12:38:08.419Z,57.38
2024-03-01T12:41:02.727Z,57.31
2024-03-01T12:43:57.566Z,57.33
2024-03-01T12:47:01.489Z,57.30
2024-03-01T12:49:48.198Z,57.22
2024-03-01T12:52:30.469Z,57.31
2024-03-01T12:55:07.526Z,57.23
2024-03-01T12:58:07.151Z,57.34
2024-03-01T13:00:47.194Z,57.07
2024-03-01T13:03:17.096Z,57.10
2024-03-01T13:05:45.097Z,57.13
2024-03-01T13:08:28.115Z,57.21
2024-03-01T13:10:58.810Z,57.09
2024-03-01T13:13:31.013Z,57.23
2024-03-01T13:16:16.305Z,57.13
2024-03-01T13:18:43.442Z,57.20
2024-03-01T13:21:25.324Z,57.15
2024-03-01T13:24:12.735Z,56.90
2024-03-01T13:26:40.403Z,56.90
2024-03-01T13:29:19.629Z,56.83
2024-03-01T13:32:10.680Z,56.89
2024-03-01T13:34:47.559Z,56.91
2024-03-01T13:37:38.701Z,56.89
2024-03-01T13:40:16.430Z,56.90
2024-03-01T13:43:23.900Z,56.87
2024-03-01T13:46:07.705Z,56.78
2024-03-01T13:48:40.465Z,56.58
2024-03-01T13:51:08.962Z,56.73
2024-03-01T13:53:38.843Z,56.86
2024-03-01T13:56:06.778Z,56.88
2024-03-01T13:58:42.287Z,56.87
2024-03-01T14:01:10.400Z,56.70
2024-03-01T14:03:38.310Z,56.81
2024-03-01T14:06:07.345Z,56.82
2024-03-01T14:08:35.813Z,56.93
2024-03-01T14:11:03.062Z,56.87
2024-03-01T14:13:30.714Z,56.89
2024-03-01T14:16:09.646Z,56.87
2024-03-01T14:18:37.858Z,56.81
2024-03-01T14:21:06.882Z,56.89
2024-03-01T14:23:34.460Z,56.98
2024-03-01T14:26:02.956Z,56.86
2024-03-01T14:28:30.882Z,56.90
2024-03-01T14:30:59.924Z,56.85
2024-03-01T14:33:28.686Z,56.92
2024-03-01T14:36:10.470Z,56.94
2024-03-01T14:38:39.333Z,57.03
2024-03-01T14:41:09.015Z,56.95
2024-03-01T14:43:47.366Z,56.93
2024-03-01T14:46:39.797Z,56.83
2024-03-01T14:49:20.922Z,56.91
2024-03-01T14:51:48.063Z,56.93
2024-03-01T14:54:32.937Z,56.75
2024-03-01T14:57:00.275Z,56.83
2024-03-01T14:59:28.552Z,56.79
2024-03-01T15:01:56.281Z,56.66
2024-03-01T15:04:24.345Z,56.74
2024-03-01T15:06:53.287Z,56.74
2024-03-01T15:09:24.218Z,56.85
2024-03-01T15:11:57.241Z,56.80
2024-03-01T15:14:26.589Z,56.72
2024-03-01T15:16:54.929Z,56.83
2024-03-01T15:19:25.439Z,56.79
2024-03-01T15:21:54.002Z,56.86
2024-03-01T15:24:22.915Z,56.77
2024-03-01T15:26:53.997Z,56.69
2024-03-01T15:29:22.325Z,56.79
2024-03-01T15:31:51.647Z,56.77
2024-03-01T15:34:20.947Z,56.67
2024-03-01T15:36:50.520Z,56.68
2024-03-01T15:39:23.392Z,56.78
2024-03-01T15:41:50.612Z,56.63
2024-03-01T15:44:21.716Z,56.58
2024-03-01T15:46:51.515Z,56.69
2024-03-01T15:49:20.000Z,56.66
2024-03-01T15:51:49.556Z,56.73
2024-03-01T15:54:19.101Z,56.73
2024-03-01T15:56:49.229Z,56.73
2024-03-01T15:59:16.334Z,56.69
2024-03-01T16:01:45.763Z,56.64
2024-03-01T16:04:15.343Z,56.86
2024-03-01T16:06:49.021Z,56.69
2024-03-01T16:09:16.637Z,56.53
2024-03-01T16:11:44.143Z,56.63
2024-03-01T16:14:13.386Z,56.72
2024-03-01T16:16:40.766Z,56.66
2024-03-01T16:19:08.908Z,56.54
2024-03-01T16:21:37.100Z,56.66
2024-03-01T16:24:09.630Z,56.63
2024-03-01T16:26:37.036Z,56.60
2024-03-01T16:29:04.155Z,56.56
2024-03-01T16:31:31.395Z,56.55
2024-03-01T16:33:59.231Z,56.74
2024-03-01T16:36:26.313Z,56.71
2024-03-01T16:38:54.110Z,56.72
2024-03-01T16:41:41.177Z,56.66
2024-03-01T16:44:44.659Z,56.78
2024-03-01T16:47:29.954Z,56.67
2024-03-01T16:50:02.731Z,56.83
2024-03-01T16:52:35.196Z,56.83
2024-03-01T16:55:05.090Z,56.79
2024-03-01T16:57:36.430Z,56.74
2024-03-01T17:00:07.829Z,56.75
2024-03-01T17:02:47.024Z,56.71
2024-03-01T17:06:01.785Z,56.85
2024-03-01T17:08:44.592Z,56.79
2024-03-01T17:11:19.519Z,56.91
2024-03-01T17:13:54.958Z,56.71
2024-03-01T17:16:28.438Z,56.79
2024-03-01T17:19:05.779Z,56.74
2024-03-01T17:21:39.259Z,56.71
2024-03-01T17:24:12.587Z,56.85
2024-03-01T17:26:44.725Z,56.85
2024-03-01T17:29:20.100Z,56.75
2024-03-01T17:31:48.788Z,56.81
2024-03-01T17:34:19.345Z,56.68
2024-03-01T17:36:54.528Z,56.76
2024-03-01T17:39:23.035Z,56.82
2024-03-01T17:41:51.964Z,56.74
2024-03-01T17:44:25.736Z,56.82
2024-03-01T17:47:02.636Z,56.65
2024-03-01T17:49:32.735Z,56.71
2024-03-01T17:52:03.472Z,56.70
2024-03-01T17:54:33.075Z,56.78
2024-03-01T17:57:06.807Z,56.68
2024-03-01T17:59:43.176Z,56.57
2024-03-01T18:02:13.281Z,56.58
2024-03-01T18:04:43.931Z,56.57
2024-03-01T18:07:26.782Z,56.78
2024-03-01T18:09:58.130Z,56.60
2024-03-01T18:12:39.134Z,56.70
2024-03-01T18:17:55.552Z,56.69
2024-03-01T18:20:24.962Z,56.70
2024-03-01T18:22:56.095Z,56.59
2024-03-01T18:25:27.322Z,56.53
2024-03-01T18:27:58.883Z,56.51
2024-03-01T18:30:29.696Z,56.60
2024-03-01T18:33:04.220Z,56.63
2024-03-01T18:35:41.687Z,56.70
2024-03-01T18:38:16.389Z,56.73
2024-03-01T18:43:33.721Z,56.69
2024-03-01T18:46:06.234Z,56.63
2024-03-01T18:48:39.497Z,56.53
2024-03-01T18:51:09.630Z,56.45
2024-03-01T18:53:40.083Z,56.66
2024-03-01T18:56:25.830Z,56.57
2024-03-01T18:59:02.801Z,56.65
2024-03-01T19:01:33.220Z,56.61
2024-03-01T19:04:10.878Z,56.71
2024-03-01T19:06:42.252Z,56.71
2024-03-01T19:09:17.520Z,56.66
2024-03-01T19:11:48.302Z,56.57
2024-03-01T19:14:18.910Z,56.61
2024-03-01T19:16:59.658Z,56.51
2024-03-01T19:19:32.655Z,56.32
2024-03-01T19:22:03.342Z,56.27
2024-03-01T19:24:39.501Z,56.26
2024-03-01T19:27:09.557Z,56.25
2024-03-01T19:29:43.434Z,56.12
2024-03-01T19:32:11.747Z,56.17
2024-03-01T19:34:44.593Z,56.20
2024-03-01T19:37:15.725Z,56.15
2024-03-01T19:39:49.303Z,56.21
2024-03-01T19:42:22.411Z,56.21
2024-03-01T19:44:50.124Z,56.29
2024-03-01T19:47:19.958Z,56.37
2024-03-01T19:49:49.922Z,56.31
2024-03-01T19:52:26.327Z,56.28
2024-03-01T19:54:58.450Z,56.35
2024-03-01T19:57:31.000Z,56.28
2024-03-01T20:00:03.728Z,56.30
2024-03-01T20:02:41.593Z,56.35
2024-03-01T20:05:12.245Z,56.34
2024-03-01T20:07:46.000Z,56.28
2024-03-01T20:10:20.876Z,56.35
2024-03-01T20:12:49.512Z,56.24
2024-03-01T20:15:22.556Z,56.30
2024-03-01T20:20:35.515Z,56.48
2024-03-01T20:23:08.154Z,56.33
2024-03-01T20:25:37.511Z,56.47
2024-03-01T20:28:13.004Z,56.69
2024-03-01T20:30:40.500Z,56.65
2024-03-01T20:33:19.274Z,56.63
2024-03-01T20:35:53.690Z,56.76
2024-03-01T20:38:26.362Z,56.58
2024-03-01T20:41:01.442Z,56.64
2024-03-01T20:43:36.496Z,56.71
2024-03-01T20:46:14.462Z,56.73
2024-03-01T20:48:49.911Z,56.51
2024-03-01T20:51:20.878Z,56.64
2024-03-01T20:53:51.813Z,56.54
2024-03-01T20:56:22.536Z,56.66
2024-03-01T20:58:57.933Z,56.53
2024-03-01T21:01:32.569Z,56.64
2024-03-01T21:04:01.809Z,56.67
2024-03-01T21:06:32.022Z,56.66
2024-03-01T21:09:08.844Z,56.63
2024-03-01T21:11:45.611Z,56.66
2024-03-01T21:14:15.249Z,56.68
2024-03-01T21:16:50.113Z,56.74
2024-03-01T21:19:20.086Z,56.69
2024-03-01T21:24:27.300Z,56.69
2024-03-01T21:26:57.118Z,56.73
2024-03-01T21:29:28.249Z,56.81
2024-03-01T21:32:01.697Z,56.80
2024-03-01T21:34:34.589Z,56.73
2024-03-01T21:37:02.407Z,56.79
2024-03-01T21:39:36.500Z,56.63
2024-03-01T21:42:08.238Z,56.73
2024-03-01T21:44:38.488Z,56.63
2024-03-01T21:47:08.150Z,56.76
2024-03-01T21:49:35.609Z,56.64
2024-03-01T21:52:09.435Z,56.73
2024-03-01T21:54:40.581Z,56.73
2024-03-01T21:57:08.502Z,56.68
2024-03-01T21:59:35.469Z,56.76
2024-03-01T22:02:07.109Z,56.74
2024-03-01T22:04:34.669Z,56.66
2024-03-01T22:07:02.268Z,56.66
2024-03-01T22:09:30.651Z,56.62
2024-03-01T22:11:57.720Z,56.53
2024-03-01T22:14:26.497Z,56.63
2024-03-01T22:16:53.591Z,56.60
2024-03-01T22:19:20.746Z,56.59
2024-03-01T22:21:52.021Z,56.57
2024-03-01T22:24:23.178Z,56.63
2024-03-01T22:26:50.344Z,56.51
2024-03-01T22:29:18.862Z,56.73
2024-03-01T22:51:51.377Z,56.75
2024-03-01T22:54:28.068Z,56.72
2024-03-01T22:56:58.417Z,56.74
2024-03-01T22:59:50.796Z,56.73
2024-03-01T23:02:18.150Z,56.70
2024-03-01T23:04:46.331Z,56.72
2024-03-01T23:07:13.977Z,56.80
2024-03-01T23:09:44.318Z,56.63
2024-03-01T23:12:12.893Z,56.77
2024-03-01T23:14:49.453Z,56.68
2024-03-01T23:17:17.322Z,56.73
2024-03-01T23:19:45.803Z,56.66
2024-03-01T23:22:16.036Z,56.67
2024-03-01T23:24:43.783Z,56.77
2024-03-01T23:27:11.108Z,56.68
2024-03-01T23:29:38.296Z,56.69
2024-03-01T23:32:07.496Z,56.63
2024-03-01T23:34:35.642Z,56.70
2024-03-01T23:37:03.060Z,56.55
2024-03-01T23:39:31.037Z,56.62
2024-03-01T23:41:58.280Z,56.67
2024-03-01T23:44:25.327Z,56.71
2024-03-01T23:46:52.418Z,56.55
2024-03-01T23:49:19.725Z,56.63
2024-03-01T23:51:47.125Z,56.65
2024-03-01T23:54:15.688Z,56.70
2024-03-01T23:56:43.507Z,56.70
2024-03-01T23:59:10.634Z,56.65
